Pagrindinis puslapis
METAR-TAF:

METAR-TAF

Oro uostai :

Marianhamina, Suomija

platuma: 60-07N, ilguma: 019-54E, Aukštis: 6 m

Dabartinis oras

Ataskaita buvo paskelbta 26 minutes, ne 06:20 UTC
Vėjas 6 kt iš Šiaurės/Šiaurės Vakarų, svyruoja nuo Vakarų/Šiaurės Vakarų ir Šiaurės
Temperatūra 4°C
Drėgmė 70%
Slėgis 1021 hPa
Matomumas 10 km arba daugiau
nėra debesų žemiau 1500 m ir nėra kamuolinių lietaus debesų

METAR: EFMA 100620Z AUTO 33006KT 290V010 CAVOK 04/M01 Q1021

Laikas: 09:46 (06:46 UTC)

Prognozė

Ataskaita buvo paskelbta 1 valandą ir 24 minutes, ne 05:22 UTC
Prognozė galioja nuo 10 metu 06 UTC su 10 metu 15 UTC
Vėjas 9 kt iš Šiaurės Vakarų
Matomumas 10 km arba daugiau
nėra debesų žemiau 1500 m ir nėra kamuolinių lietaus debesų

TAF: EFMA 100522Z 1006/1015 32009KT CAVOK

Orai ataskaitas ir orų prognozės (METAR, TAF).

turimą stotys yra geltonos ir raudonos taškus žemėlapyje.

Perkelti pele per norėdami pamatyti stoties vardą.

Tada spustelėkite, norėdami matyti oro stebėjimo ir prognozės.

Norėdami pakeisti žemėlapį: spustelėkite ant žalios mygtukų su juodo kryžiaus žemyn,; žalią mygtuką su brūkšneliu, jei norite nutolinti; arba žalių rodyklių gretimoms žemėlapius.


METAR-TAF: